sensor_id;sensor_type;location;lat;lon;timestamp;pressure;altitude;pressure_sealevel;temperature;humidity
30618;BME280;17384;51.214;9.202;2023-07-24T00:00:21;97802.25;;;17.46;90.89
30618;BME280;17384;51.214;9.202;2023-07-24T00:02:47;97795.97;;;17.45;90.80
30618;BME280;17384;51.214;9.202;2023-07-24T00:05:13;97806.41;;;17.38;91.09
30618;BME280;17384;51.214;9.202;2023-07-24T00:07:38;97810.81;;;17.34;91.70
30618;BME280;17384;51.214;9.202;2023-07-24T00:10:05;97808.66;;;17.31;92.01
30618;BME280;17384;51.214;9.202;2023-07-24T00:12:30;97807.84;;;17.25;91.75
30618;BME280;17384;51.214;9.202;2023-07-24T00:14:56;97809.78;;;17.25;91.89
30618;BME280;17384;51.214;9.202;2023-07-24T00:17:21;97802.97;;;17.17;92.55
30618;BME280;17384;51.214;9.202;2023-07-24T00:19:48;97800.81;;;17.14;92.59
30618;BME280;17384;51.214;9.202;2023-07-24T00:22:14;97799.19;;;17.08;92.94
30618;BME280;17384;51.214;9.202;2023-07-24T00:24:39;97794.25;;;17.10;92.95
30618;BME280;17384;51.214;9.202;2023-07-24T00:27:05;97811.53;;;17.06;92.88
30618;BME280;17384;51.214;9.202;2023-07-24T00:29:30;97798.38;;;17.03;93.36
30618;BME280;17384;51.214;9.202;2023-07-24T00:31:56;97810.78;;;16.95;93.50
30618;BME280;17384;51.214;9.202;2023-07-24T00:34:21;97789.97;;;16.94;93.23
30618;BME280;17384;51.214;9.202;2023-07-24T00:36:47;97791.59;;;16.95;93.29
30618;BME280;17384;51.214;9.202;2023-07-24T00:39:14;97799.00;;;16.89;93.31
30618;BME280;17384;51.214;9.202;2023-07-24T00:41:40;97789.44;;;16.87;93.95
30618;BME280;17384;51.214;9.202;2023-07-24T00:44:05;97779.31;;;16.82;93.97
30618;BME280;17384;51.214;9.202;2023-07-24T00:46:31;97773.03;;;16.77;93.98
30618;BME280;17384;51.214;9.202;2023-07-24T00:48:58;97777.16;;;16.74;94.42
30618;BME280;17384;51.214;9.202;2023-07-24T00:51:26;97780.47;;;16.66;94.82
30618;BME280;17384;51.214;9.202;2023-07-24T00:53:56;97778.81;;;16.60;94.89
30618;BME280;17384;51.214;9.202;2023-07-24T00:56:22;97790.06;;;16.53;95.61
30618;BME280;17384;51.214;9.202;2023-07-24T00:58:48;97796.09;;;16.45;95.87
30618;BME280;17384;51.214;9.202;2023-07-24T01:01:16;97792.28;;;16.46;95.75
30618;BME280;17384;51.214;9.202;2023-07-24T01:03:42;97780.78;;;16.44;95.91
30618;BME280;17384;51.214;9.202;2023-07-24T01:06:09;97787.34;;;16.48;96.30
30618;BME280;17384;51.214;9.202;2023-07-24T01:08:34;97780.56;;;16.31;96.85
30618;BME280;17384;51.214;9.202;2023-07-24T01:11:04;97790.41;;;16.32;96.64
30618;BME280;17384;51.214;9.202;2023-07-24T01:13:36;97779.75;;;16.20;96.72
30618;BME280;17384;51.214;9.202;2023-07-24T01:16:14;97778.41;;;16.12;96.81
30618;BME280;17384;51.214;9.202;2023-07-24T01:18:39;97777.00;;;16.15;97.00
30618;BME280;17384;51.214;9.202;2023-07-24T01:21:08;97780.84;;;16.14;96.68
30618;BME280;17384;51.214;9.202;2023-07-24T01:26:19;97780.34;;;16.07;96.70
30618;BME280;17384;51.214;9.202;2023-07-24T01:28:44;97776.50;;;16.08;97.41
30618;BME280;17384;51.214;9.202;2023-07-24T01:31:10;97773.22;;;16.06;97.45
30618;BME280;17384;51.214;9.202;2023-07-24T01:33:37;97774.84;;;15.97;96.98
30618;BME280;17384;51.214;9.202;2023-07-24T01:36:04;97762.31;;;15.75;98.21
30618;BME280;17384;51.214;9.202;2023-07-24T01:38:34;97770.50;;;15.60;98.38
30618;BME280;17384;51.214;9.202;2023-07-24T01:41:00;97767.19;;;15.53;98.82
30618;BME280;17384;51.214;9.202;2023-07-24T01:43:26;97762.84;;;15.62;98.87
30618;BME280;17384;51.214;9.202;2023-07-24T01:45:52;97765.53;;;15.42;98.98
30618;BME280;17384;51.214;9.202;2023-07-24T01:48:18;97769.38;;;15.51;99.45
30618;BME280;17384;51.214;9.202;2023-07-24T01:50:44;97758.44;;;15.46;99.41
30618;BME280;17384;51.214;9.202;2023-07-24T01:53:09;97774.03;;;15.55;99.21
30618;BME280;17384;51.214;9.202;2023-07-24T01:55:35;97757.66;;;15.66;98.49
30618;BME280;17384;51.214;9.202;2023-07-24T01:58:00;97748.59;;;15.50;98.66
30618;BME280;17384;51.214;9.202;2023-07-24T02:00:25;97757.88;;;15.44;99.40
30618;BME280;17384;51.214;9.202;2023-07-24T02:02:51;97752.16;;;15.45;97.61
30618;BME280;17384;51.214;9.202;2023-07-24T02:05:16;97735.03;;;14.57;98.69
30618;BME280;17384;51.214;9.202;2023-07-24T02:07:42;97741.94;;;14.75;99.15
30618;BME280;17384;51.214;9.202;2023-07-24T02:10:08;97734.25;;;14.67;100.00
30618;BME280;17384;51.214;9.202;2023-07-24T02:12:33;97756.31;;;14.60;100.00
30618;BME280;17384;51.214;9.202;2023-07-24T02:14:59;97745.66;;;14.53;100.00
30618;BME280;17384;51.214;9.202;2023-07-24T02:17:25;97749.72;;;14.46;100.00
30618;BME280;17384;51.214;9.202;2023-07-24T02:19:50;97744.75;;;14.38;100.00
30618;BME280;17384;51.214;9.202;2023-07-24T02:22:16;97736.91;;;14.51;100.00
30618;BME280;17384;51.214;9.202;2023-07-24T02:24:41;97740.78;;;14.61;100.00
30618;BME280;17384;51.214;9.202;2023-07-24T02:27:07;97739.69;;;14.62;100.00
30618;BME280;17384;51.214;9.202;2023-07-24T02:29:32;97745.13;;;14.62;100.00
30618;BME280;17384;51.214;9.202;2023-07-24T02:31:58;97746.75;;;14.57;100.00
30618;BME280;17384;51.214;9.202;2023-07-24T02:34:24;97741.53;;;14.51;100.00
30618;BME280;17384;51.214;9.202;2023-07-24T02:36:52;97746.78;;;14.63;100.00
30618;BME280;17384;51.214;9.202;2023-07-24T02:39:19;97751.72;;;14.66;100.00
30618;BME280;17384;51.214;9.202;2023-07-24T02:41:44;97754.66;;;14.49;100.00
30618;BME280;17384;51.214;9.202;2023-07-24T02:44:10;97757.63;;;14.42;100.00
30618;BME280;17384;51.214;9.202;2023-07-24T02:46:36;97746.19;;;14.45;100.00
30618;BME280;17384;51.214;9.202;2023-07-24T02:49:01;97751.56;;;14.40;100.00
30618;BME280;17384;51.214;9.202;2023-07-24T02:51:27;97749.44;;;14.42;100.00
30618;BME280;17384;51.214;9.202;2023-07-24T02:53:54;97733.09;;;14.57;100.00
30618;BME280;17384;51.214;9.202;2023-07-24T02:56:19;97741.84;;;14.49;100.00
30618;BME280;17384;51.214;9.202;2023-07-24T02:58:45;97746.66;;;14.37;100.00
30618;BME280;17384;51.214;9.202;2023-07-24T03:01:11;97729.97;;;14.34;100.00
30618;BME280;17384;51.214;9.202;2023-07-24T03:03:42;97732.97;;;14.32;100.00
30618;BME280;17384;51.214;9.202;2023-07-24T03:06:07;97733.78;;;14.33;100.00
30618;BME280;17384;51.214;9.202;2023-07-24T03:08:33;97738.06;;;14.13;100.00
30618;BME280;17384;51.214;9.202;2023-07-24T03:10:59;97748.78;;;14.30;100.00
30618;BME280;17384;51.214;9.202;2023-07-24T03:13:24;97740.03;;;14.28;100.00
30618;BME280;17384;51.214;9.202;2023-07-24T03:15:57;97740.56;;;14.25;100.00
30618;BME280;17384;51.214;9.202;2023-07-24T03:18:23;97738.38;;;14.17;100.00
30618;BME280;17384;51.214;9.202;2023-07-24T03:20:49;97728.28;;;14.17;100.00
30618;BME280;17384;51.214;9.202;2023-07-24T03:23:14;97726.59;;;14.11;100.00
30618;BME280;17384;51.214;9.202;2023-07-24T03:25:40;97737.50;;;14.11;100.00
30618;BME280;17384;51.214;9.202;2023-07-24T03:28:06;97719.81;;;14.24;100.00
30618;BME280;17384;51.214;9.202;2023-07-24T03:30:31;97723.59;;;14.13;100.00
30618;BME280;17384;51.214;9.202;2023-07-24T03:32:57;97713.78;;;14.12;100.00
30618;BME280;17384;51.214;9.202;2023-07-24T03:35:22;97703.72;;;14.17;100.00
30618;BME280;17384;51.214;9.202;2023-07-24T03:37:48;97712.66;;;14.08;100.00
30618;BME280;17384;51.214;9.202;2023-07-24T03:40:13;97709.41;;;14.11;100.00
30618;BME280;17384;51.214;9.202;2023-07-24T03:42:39;97713.47;;;14.03;100.00
30618;BME280;17384;51.214;9.202;2023-07-24T03:45:05;97715.31;;;13.98;100.00
30618;BME280;17384;51.214;9.202;2023-07-24T03:47:31;97715.31;;;13.93;100.00
30618;BME280;17384;51.214;9.202;2023-07-24T03:49:56;97720.22;;;13.91;100.00
30618;BME280;17384;51.214;9.202;2023-07-24T03:52:22;97721.84;;;13.92;100.00
30618;BME280;17384;51.214;9.202;2023-07-24T03:54:47;97724.03;;;13.89;100.00
30618;BME280;17384;51.214;9.202;2023-07-24T03:57:13;97720.22;;;13.91;100.00
30618;BME280;17384;51.214;9.202;2023-07-24T03:59:38;97716.97;;;13.94;100.00
30618;BME280;17384;51.214;9.202;2023-07-24T04:02:04;97711.00;;;14.02;100.00
30618;BME280;17384;51.214;9.202;2023-07-24T04:04:30;97697.69;;;14.10;100.00
30618;BME280;17384;51.214;9.202;2023-07-24T04:06:56;97704.00;;;14.16;100.00
30618;BME280;17384;51.214;9.202;2023-07-24T04:09:21;97698.00;;;14.24;100.00
30618;BME280;17384;51.214;9.202;2023-07-24T04:11:47;97695.28;;;14.19;100.00
30618;BME280;17384;51.214;9.202;2023-07-24T04:14:15;97702.69;;;14.34;100.00
30618;BME280;17384;51.214;9.202;2023-07-24T04:16:40;97694.53;;;14.39;100.00
30618;BME280;17384;51.214;9.202;2023-07-24T04:19:05;97698.63;;;14.36;100.00
30618;BME280;17384;51.214;9.202;2023-07-24T04:21:31;97688.25;;;14.38;100.00
30618;BME280;17384;51.214;9.202;2023-07-24T04:23:56;97686.41;;;14.44;100.00
30618;BME280;17384;51.214;9.202;2023-07-24T04:26:22;97681.25;;;14.57;100.00
30618;BME280;17384;51.214;9.202;2023-07-24T04:28:47;97708.63;;;14.88;100.00
30618;BME280;17384;51.214;9.202;2023-07-24T04:31:13;97701.56;;;14.97;100.00
30618;BME280;17384;51.214;9.202;2023-07-24T04:33:39;97716.03;;;14.98;100.00
30618;BME280;17384;51.214;9.202;2023-07-24T04:36:04;97706.75;;;15.09;100.00
30618;BME280;17384;51.214;9.202;2023-07-24T04:38:30;97691.44;;;14.98;100.00
30618;BME280;17384;51.214;9.202;2023-07-24T04:40:56;97698.28;;;14.95;100.00
30618;BME280;17384;51.214;9.202;2023-07-24T04:43:21;97707.28;;;14.96;100.00
30618;BME280;17384;51.214;9.202;2023-07-24T04:45:46;97708.13;;;15.01;100.00
30618;BME280;17384;51.214;9.202;2023-07-24T04:48:12;97689.81;;;15.02;100.00
30618;BME280;17384;51.214;9.202;2023-07-24T04:50:37;97685.16;;;15.12;100.00
30618;BME280;17384;51.214;9.202;2023-07-24T04:53:03;97693.41;;;15.28;100.00
30618;BME280;17384;51.214;9.202;2023-07-24T04:55:28;97675.38;;;15.57;100.00
30618;BME280;17384;51.214;9.202;2023-07-24T04:57:53;97679.72;;;15.68;100.00
30618;BME280;17384;51.214;9.202;2023-07-24T05:00:19;97676.97;;;15.83;100.00
30618;BME280;17384;51.214;9.202;2023-07-24T05:02:44;97676.94;;;15.94;100.00
30618;BME280;17384;51.214;9.202;2023-07-24T05:05:10;97680.75;;;15.93;100.00
30618;BME280;17384;51.214;9.202;2023-07-24T05:07:35;97683.22;;;15.94;99.58
30618;BME280;17384;51.214;9.202;2023-07-24T05:10:01;97664.53;;;16.16;98.48
30618;BME280;17384;51.214;9.202;2023-07-24T05:12:26;97666.34;;;16.46;96.37
30618;BME280;17384;51.214;9.202;2023-07-24T05:14:51;97661.09;;;16.55;95.23
30618;BME280;17384;51.214;9.202;2023-07-24T05:17:17;97664.00;;;16.79;94.90
30618;BME280;17384;51.214;9.202;2023-07-24T05:19:43;97667.81;;;16.83;93.34
30618;BME280;17384;51.214;9.202;2023-07-24T05:22:08;97667.94;;;17.07;92.93
30618;BME280;17384;51.214;9.202;2023-07-24T05:24:36;97659.34;;;17.18;92.43
30618;BME280;17384;51.214;9.202;2023-07-24T05:27:01;97657.72;;;17.17;92.37
30618;BME280;17384;51.214;9.202;2023-07-24T05:29:27;97662.56;;;17.25;90.33
30618;BME280;17384;51.214;9.202;2023-07-24T05:31:52;97676.69;;;17.43;89.71
30618;BME280;17384;51.214;9.202;2023-07-24T05:34:18;97679.72;;;17.41;90.54
30618;BME280;17384;51.214;9.202;2023-07-24T05:36:43;97667.41;;;17.39;90.18
30618;BME280;17384;51.214;9.202;2023-07-24T05:39:08;97663.41;;;17.55;89.63
30618;BME280;17384;51.214;9.202;2023-07-24T05:41:34;97669.19;;;17.53;88.27
30618;BME280;17384;51.214;9.202;2023-07-24T05:43:59;97674.31;;;17.65;87.79
30618;BME280;17384;51.214;9.202;2023-07-24T05:46:25;97676.28;;;17.88;87.31
30618;BME280;17384;51.214;9.202;2023-07-24T05:48:50;97675.66;;;18.20;85.83
30618;BME280;17384;51.214;9.202;2023-07-24T05:51:16;97672.56;;;18.27;84.89
30618;BME280;17384;51.214;9.202;2023-07-24T05:53:41;97672.97;;;18.39;83.77
30618;BME280;17384;51.214;9.202;2023-07-24T05:56:06;97670.06;;;18.73;81.47
30618;BME280;17384;51.214;9.202;2023-07-24T05:58:32;97678.47;;;19.01;81.06
30618;BME280;17384;51.214;9.202;2023-07-24T06:00:57;97687.97;;;19.27;80.43
30618;BME280;17384;51.214;9.202;2023-07-24T06:03:23;97696.41;;;19.49;77.98
30618;BME280;17384;51.214;9.202;2023-07-24T06:05:53;97692.09;;;19.94;77.79
30618;BME280;17384;51.214;9.202;2023-07-24T06:08:19;97688.09;;;19.87;75.93
30618;BME280;17384;51.214;9.202;2023-07-24T06:10:49;97684.09;;;19.66;77.36
30618;BME280;17384;51.214;9.202;2023-07-24T06:13:16;97679.47;;;19.61;77.02
30618;BME280;17384;51.214;9.202;2023-07-24T06:15:42;97673.47;;;19.73;77.38
30618;BME280;17384;51.214;9.202;2023-07-24T06:18:09;97677.38;;;19.85;75.73
30618;BME280;17384;51.214;9.202;2023-07-24T06:20:34;97671.06;;;19.99;74.76
30618;BME280;17384;51.214;9.202;2023-07-24T06:23:00;97661.09;;;20.03;74.74
30618;BME280;17384;51.214;9.202;2023-07-24T06:25:26;97671.91;;;20.13;73.96
30618;BME280;17384;51.214;9.202;2023-07-24T06:27:51;97649.69;;;20.09;74.72
30618;BME280;17384;51.214;9.202;2023-07-24T06:30:16;97665.59;;;20.12;73.17
30618;BME280;17384;51.214;9.202;2023-07-24T06:32:42;97654.09;;;20.24;73.90
30618;BME280;17384;51.214;9.202;2023-07-24T06:35:08;97656.22;;;20.54;72.83
30618;BME280;17384;51.214;9.202;2023-07-24T06:37:34;97650.28;;;20.75;72.45
30618;BME280;17384;51.214;9.202;2023-07-24T06:39:59;97618.31;;;20.74;71.29
30618;BME280;17384;51.214;9.202;2023-07-24T06:42:25;97637.31;;;20.61;71.19
30618;BME280;17384;51.214;9.202;2023-07-24T06:44:50;97626.81;;;20.64;70.44
30618;BME280;17384;51.214;9.202;2023-07-24T06:47:15;97611.94;;;20.87;70.34
30618;BME280;17384;51.214;9.202;2023-07-24T06:49:41;97624.81;;;21.14;69.21
30618;BME280;17384;51.214;9.202;2023-07-24T06:52:06;97603.84;;;21.26;68.46
30618;BME280;17384;51.214;9.202;2023-07-24T06:54:32;97617.94;;;21.47;67.60
30618;BME280;17384;51.214;9.202;2023-07-24T06:56:57;97618.25;;;21.46;66.76
30618;BME280;17384;51.214;9.202;2023-07-24T06:59:23;97614.75;;;21.54;66.55
30618;BME280;17384;51.214;9.202;2023-07-24T07:01:49;97601.47;;;21.65;66.08
30618;BME280;17384;51.214;9.202;2023-07-24T07:04:14;97607.72;;;21.48;66.36
30618;BME280;17384;51.214;9.202;2023-07-24T07:06:39;97598.63;;;21.47;65.85
30618;BME280;17384;51.214;9.202;2023-07-24T07:09:05;97607.47;;;21.36;65.65
30618;BME280;17384;51.214;9.202;2023-07-24T07:11:31;97594.31;;;21.63;66.53
30618;BME280;17384;51.214;9.202;2023-07-24T07:13:57;97619.47;;;21.84;65.99
30618;BME280;17384;51.214;9.202;2023-07-24T07:16:22;97612.50;;;21.95;63.97
30618;BME280;17384;51.214;9.202;2023-07-24T07:18:48;97593.59;;;21.80;63.45
30618;BME280;17384;51.214;9.202;2023-07-24T07:21:13;97607.63;;;21.92;63.33
30618;BME280;17384;51.214;9.202;2023-07-24T07:23:38;97599.84;;;21.94;62.69
30618;BME280;17384;51.214;9.202;2023-07-24T07:26:04;97608.88;;;22.17;63.85
30618;BME280;17384;51.214;9.202;2023-07-24T07:28:29;97601.91;;;22.11;62.72
30618;BME280;17384;51.214;9.202;2023-07-24T07:30:55;97594.00;;;22.44;63.06
30618;BME280;17384;51.214;9.202;2023-07-24T07:33:20;97577.91;;;22.46;62.48
30618;BME280;17384;51.214;9.202;2023-07-24T07:35:49;97585.13;;;22.82;61.91
30618;BME280;17384;51.214;9.202;2023-07-24T07:38:15;97586.06;;;22.43;62.25
30618;BME280;17384;51.214;9.202;2023-07-24T07:40:40;97585.91;;;22.65;61.02
30618;BME280;17384;51.214;9.202;2023-07-24T07:43:06;97601.94;;;22.28;62.57
30618;BME280;17384;51.214;9.202;2023-07-24T07:45:31;97595.06;;;22.09;63.39
30618;BME280;17384;51.214;9.202;2023-07-24T07:47:57;97606.25;;;22.60;63.09
30618;BME280;17384;51.214;9.202;2023-07-24T07:50:22;97611.84;;;22.95;61.51
30618;BME280;17384;51.214;9.202;2023-07-24T07:52:55;97601.91;;;22.85;61.54
30618;BME280;17384;51.214;9.202;2023-07-24T07:55:21;97604.34;;;22.87;61.92
30618;BME280;17384;51.214;9.202;2023-07-24T07:57:46;97593.91;;;23.01;61.20
30618;BME280;17384;51.214;9.202;2023-07-24T08:00:12;97612.44;;;23.26;59.65
30618;BME280;17384;51.214;9.202;2023-07-24T08:02:38;97610.66;;;23.48;60.85
30618;BME280;17384;51.214;9.202;2023-07-24T08:05:07;97606.28;;;23.12;60.72
30618;BME280;17384;51.214;9.202;2023-07-24T08:07:32;97597.69;;;22.97;61.55
30618;BME280;17384;51.214;9.202;2023-07-24T08:09:58;97583.63;;;23.27;61.27
30618;BME280;17384;51.214;9.202;2023-07-24T08:12:23;97603.28;;;23.78;60.46
30618;BME280;17384;51.214;9.202;2023-07-24T08:14:49;97604.19;;;23.99;57.87
30618;BME280;17384;51.214;9.202;2023-07-24T08:17:14;97599.94;;;24.02;58.51
30618;BME280;17384;51.214;9.202;2023-07-24T08:19:40;97607.53;;;24.51;58.44
30618;BME280;17384;51.214;9.202;2023-07-24T08:22:05;97601.63;;;24.82;56.90
30618;BME280;17384;51.214;9.202;2023-07-24T08:24:34;97604.50;;;24.36;57.13
30618;BME280;17384;51.214;9.202;2023-07-24T08:27:00;97606.72;;;24.13;56.95
30618;BME280;17384;51.214;9.202;2023-07-24T08:29:25;97610.09;;;23.80;57.19
30618;BME280;17384;51.214;9.202;2023-07-24T08:31:51;97592.53;;;24.14;56.75
30618;BME280;17384;51.214;9.202;2023-07-24T08:34:16;97588.56;;;24.24;56.38
30618;BME280;17384;51.214;9.202;2023-07-24T08:36:42;97582.56;;;24.22;55.40
30618;BME280;17384;51.214;9.202;2023-07-24T08:39:07;97593.81;;;24.25;55.88
30618;BME280;17384;51.214;9.202;2023-07-24T08:41:32;97611.72;;;23.81;56.77
30618;BME280;17384;51.214;9.202;2023-07-24T08:43:59;97587.53;;;23.35;57.49
30618;BME280;17384;51.214;9.202;2023-07-24T08:46:27;97587.75;;;22.87;59.23
30618;BME280;17384;51.214;9.202;2023-07-24T08:48:54;97570.00;;;22.79;59.50
30618;BME280;17384;51.214;9.202;2023-07-24T08:51:20;97567.22;;;23.05;58.14
30618;BME280;17384;51.214;9.202;2023-07-24T08:53:48;97576.84;;;22.90;59.39
30618;BME280;17384;51.214;9.202;2023-07-24T08:56:14;97565.06;;;23.37;59.37
30618;BME280;17384;51.214;9.202;2023-07-24T08:58:40;97555.13;;;23.44;58.33
30618;BME280;17384;51.214;9.202;2023-07-24T09:01:06;97557.53;;;23.72;58.02
30618;BME280;17384;51.214;9.202;2023-07-24T09:03:32;97558.56;;;23.96;57.51
30618;BME280;17384;51.214;9.202;2023-07-24T09:05:58;97561.84;;;23.90;56.23
30618;BME280;17384;51.214;9.202;2023-07-24T09:08:33;97572.06;;;23.43;59.18
30618;BME280;17384;51.214;9.202;2023-07-24T09:11:00;97576.19;;;24.21;58.10
30618;BME280;17384;51.214;9.202;2023-07-24T09:13:26;97569.50;;;24.31;58.33
30618;BME280;17384;51.214;9.202;2023-07-24T09:15:52;97559.69;;;24.34;57.18
30618;BME280;17384;51.214;9.202;2023-07-24T09:18:18;97558.84;;;24.04;57.55
30618;BME280;17384;51.214;9.202;2023-07-24T09:20:44;97558.34;;;23.72;58.75
30618;BME280;17384;51.214;9.202;2023-07-24T09:23:12;97549.97;;;23.81;57.71
30618;BME280;17384;51.214;9.202;2023-07-24T09:25:39;97559.91;;;23.82;58.20
30618;BME280;17384;51.214;9.202;2023-07-24T09:28:16;97549.63;;;24.29;56.26
30618;BME280;17384;51.214;9.202;2023-07-24T09:30:50;97550.56;;;24.33;56.92
30618;BME280;17384;51.214;9.202;2023-07-24T09:33:16;97551.22;;;24.59;55.66
30618;BME280;17384;51.214;9.202;2023-07-24T09:35:42;97546.34;;;24.98;54.36
30618;BME280;17384;51.214;9.202;2023-07-24T09:38:09;97552.34;;;24.58;55.45
30618;BME280;17384;51.214;9.202;2023-07-24T09:40:39;97532.75;;;23.75;56.68
30618;BME280;17384;51.214;9.202;2023-07-24T09:43:34;97538.84;;;23.43;57.83
30618;BME280;17384;51.214;9.202;2023-07-24T09:46:04;97529.22;;;23.49;57.77
30618;BME280;17384;51.214;9.202;2023-07-24T09:48:31;97528.56;;;23.60;58.45
30618;BME280;17384;51.214;9.202;2023-07-24T09:50:58;97538.19;;;23.92;57.68
30618;BME280;17384;51.214;9.202;2023-07-24T09:53:43;97523.81;;;23.61;56.21
30618;BME280;17384;51.214;9.202;2023-07-24T09:56:10;97523.81;;;23.70;57.21
30618;BME280;17384;51.214;9.202;2023-07-24T09:58:39;97515.22;;;24.21;55.81
30618;BME280;17384;51.214;9.202;2023-07-24T10:01:09;97519.66;;;24.85;54.48
30618;BME280;17384;51.214;9.202;2023-07-24T10:03:46;97519.00;;;25.21;52.90
30618;BME280;17384;51.214;9.202;2023-07-24T10:06:12;97518.25;;;25.45;52.87
30618;BME280;17384;51.214;9.202;2023-07-24T10:08:40;97522.50;;;25.63;52.08
30618;BME280;17384;51.214;9.202;2023-07-24T10:11:11;97516.69;;;25.11;51.50
30618;BME280;17384;51.214;9.202;2023-07-24T10:13:37;97501.47;;;24.54;52.08
30618;BME280;17384;51.214;9.202;2023-07-24T10:16:04;97495.59;;;24.77;50.42
30618;BME280;17384;51.214;9.202;2023-07-24T10:18:33;97480.97;;;24.68;49.70
30618;BME280;17384;51.214;9.202;2023-07-24T10:23:26;97491.03;;;25.14;48.97
30618;BME280;17384;51.214;9.202;2023-07-24T10:25:52;97486.09;;;24.78;49.46
30618;BME280;17384;51.214;9.202;2023-07-24T10:28:18;97476.84;;;24.74;49.97
30618;BME280;17384;51.214;9.202;2023-07-24T10:30:44;97486.00;;;24.33;50.46
30618;BME280;17384;51.214;9.202;2023-07-24T10:33:34;97503.44;;;24.04;51.85
30618;BME280;17384;51.214;9.202;2023-07-24T10:36:10;97485.75;;;23.87;52.06
30618;BME280;17384;51.214;9.202;2023-07-24T10:38:41;97493.50;;;23.73;52.71
30618;BME280;17384;51.214;9.202;2023-07-24T10:41:09;97499.69;;;23.70;54.05
30618;BME280;17384;51.214;9.202;2023-07-24T10:43:50;97506.03;;;23.71;52.34
30618;BME280;17384;51.214;9.202;2023-07-24T10:46:18;97488.44;;;23.75;53.05
30618;BME280;17384;51.214;9.202;2023-07-24T10:49:20;97478.50;;;23.74;52.89
30618;BME280;17384;51.214;9.202;2023-07-24T10:52:09;97470.13;;;23.45;53.43
30618;BME280;17384;51.214;9.202;2023-07-24T10:54:59;97472.00;;;23.70;53.41
30618;BME280;17384;51.214;9.202;2023-07-24T10:57:46;97485.78;;;24.58;52.34
30618;BME280;17384;51.214;9.202;2023-07-24T11:00:12;97481.03;;;24.80;51.76
30618;BME280;17384;51.214;9.202;2023-07-24T11:02:38;97483.06;;;24.71;51.80
30618;BME280;17384;51.214;9.202;2023-07-24T11:05:30;97500.91;;;25.48;51.45
30618;BME280;17384;51.214;9.202;2023-07-24T11:07:57;97492.41;;;26.02;48.75
30618;BME280;17384;51.214;9.202;2023-07-24T11:10:24;97487.94;;;24.74;51.23
30618;BME280;17384;51.214;9.202;2023-07-24T11:12:52;97470.91;;;24.42;50.91
30618;BME280;17384;51.214;9.202;2023-07-24T11:15:25;97477.22;;;24.22;52.71
30618;BME280;17384;51.214;9.202;2023-07-24T11:18:07;97479.84;;;24.27;51.90
30618;BME280;17384;51.214;9.202;2023-07-24T11:20:43;97469.38;;;24.24;51.64
30618;BME280;17384;51.214;9.202;2023-07-24T11:23:10;97477.41;;;24.17;52.12
30618;BME280;17384;51.214;9.202;2023-07-24T11:25:35;97475.94;;;24.19;52.85
30618;BME280;17384;51.214;9.202;2023-07-24T11:30:32;97458.44;;;24.69;51.38
30618;BME280;17384;51.214;9.202;2023-07-24T11:32:59;97448.34;;;24.85;50.21
30618;BME280;17384;51.214;9.202;2023-07-24T11:35:26;97445.81;;;25.25;49.57
30618;BME280;17384;51.214;9.202;2023-07-24T11:37:52;97448.66;;;25.74;49.80
30618;BME280;17384;51.214;9.202;2023-07-24T11:40:17;97437.78;;;25.93;47.38
30618;BME280;17384;51.214;9.202;2023-07-24T11:42:46;97441.41;;;25.24;48.44
30618;BME280;17384;51.214;9.202;2023-07-24T11:45:13;97436.66;;;25.13;50.10
30618;BME280;17384;51.214;9.202;2023-07-24T11:47:49;97421.81;;;24.96;49.41
30618;BME280;17384;51.214;9.202;2023-07-24T11:50:15;97431.50;;;24.70;50.17
30618;BME280;17384;51.214;9.202;2023-07-24T11:52:46;97430.06;;;24.51;49.93
30618;BME280;17384;51.214;9.202;2023-07-24T11:55:15;97432.38;;;24.28;50.88
30618;BME280;17384;51.214;9.202;2023-07-24T11:57:40;97423.56;;;24.06;50.78
30618;BME280;17384;51.214;9.202;2023-07-24T12:00:18;97412.72;;;23.92;50.86
30618;BME280;17384;51.214;9.202;2023-07-24T12:02:44;97404.03;;;24.02;50.44
30618;BME280;17384;51.214;9.202;2023-07-24T12:05:10;97397.34;;;24.45;50.73
30618;BME280;17384;51.214;9.202;2023-07-24T12:07:36;97394.31;;;24.71;50.19
30618;BME280;17384;51.214;9.202;2023-07-24T12:10:03;97396.53;;;25.10;49.68
30618;BME280;17384;51.214;9.202;2023-07-24T12:12:46;97395.28;;;25.32;50.02
30618;BME280;17384;51.214;9.202;2023-07-24T12:15:12;97387.50;;;25.25;48.93
30618;BME280;17384;51.214;9.202;2023-07-24T12:17:39;97386.94;;;25.32;48.90
30618;BME280;17384;51.214;9.202;2023-07-24T12:20:06;97387.75;;;25.81;49.44
30618;BME280;17384;51.214;9.202;2023-07-24T12:22:34;97383.63;;;26.55;49.90
30618;BME280;17384;51.214;9.202;2023-07-24T12:25:03;97383.00;;;25.82;48.29
30618;BME280;17384;51.214;9.202;2023-07-24T12:27:29;97392.25;;;25.61;49.81
30618;BME280;17384;51.214;9.202;2023-07-24T12:29:54;97383.13;;;25.24;49.22
30618;BME280;17384;51.214;9.202;2023-07-24T12:32:20;97364.66;;;24.83;50.31
30618;BME280;17384;51.214;9.202;2023-07-24T12:34:49;97374.09;;;25.27;50.21
30618;BME280;17384;51.214;9.202;2023-07-24T12:37:15;97359.09;;;24.83;50.09
30618;BME280;17384;51.214;9.202;2023-07-24T12:39:41;97361.75;;;24.47;51.12
30618;BME280;17384;51.214;9.202;2023-07-24T12:42:06;97350.38;;;24.27;51.22
30618;BME280;17384;51.214;9.202;2023-07-24T12:44:32;97353.25;;;24.10;51.79
30618;BME280;17384;51.214;9.202;2023-07-24T12:46:58;97343.06;;;24.02;51.66
30618;BME280;17384;51.214;9.202;2023-07-24T12:49:24;97341.09;;;24.03;51.57
30618;BME280;17384;51.214;9.202;2023-07-24T12:51:49;97335.56;;;24.03;52.32
30618;BME280;17384;51.214;9.202;2023-07-24T12:54:16;97334.31;;;24.12;51.25
30618;BME280;17384;51.214;9.202;2023-07-24T12:56:41;97345.50;;;24.24;51.45
30618;BME280;17384;51.214;9.202;2023-07-24T12:59:07;97335.06;;;24.21;51.71
30618;BME280;17384;51.214;9.202;2023-07-24T13:01:32;97344.16;;;24.31;51.59
30618;BME280;17384;51.214;9.202;2023-07-24T13:03:58;97331.31;;;24.05;50.98